Flight Track Log - Related Links

Times and Time Zones

All times are in EDT time to prevent confusion due to time zone crossing. See the CHH7693 flight status page for this flight to view local times or setup timezone preferences in your user account.

Time Position Orientation Groundspeed Altitude Reporting Facility
EDT Latitude Longitude Course Direction KTS MPH feet Rate Location/Type
Fri 09:24:28 PM 24.5312 118.1100 231° Southwest 169 194 1,300  Level FlightAware ADS-B
Fri 09:24:45 PM 24.5216 118.0975 223° Southwest 178 205 1,900 1,935 Climbing FlightAware ADS-B
Fri 09:24:59 PM 24.5116 118.0901 210° Southwest 194 223 2,300 1,256 Climbing FlightAware ADS-B
Fri 09:25:28 PM 24.4906 118.0778 207° Southwest 239 275 2,800 2,067 Climbing FlightAware ADS-B
Fri 09:26:29 PM 24.4224 118.0387 208° Southwest 267 307 5,400 2,675 Climbing FlightAware ADS-B
Fri 09:28:14 PM 24.4655 117.9550 12° North 312 359 10,200 2,672 Climbing FlightAware ADS-B
Fri 09:28:28 PM 24.4874 117.9569 359° North 324 373 10,700 2,533 Climbing FlightAware ADS-B
Fri 09:28:59 PM 24.5322 117.9539 North 335 386 12,100 2,933 Climbing FlightAware ADS-B
Fri 09:29:13 PM 24.5554 117.9599 19° North 339 390 12,900 3,136 Climbing FlightAware ADS-B
Fri 09:29:43 PM 24.5987 117.9762 19° North 343 395 14,400 2,700 Climbing FlightAware ADS-B
Fri 09:30:13 PM 24.6469 117.9936 15° North 348 400 15,600 2,381 Climbing FlightAware ADS-B
Fri 09:30:46 PM 24.6881 118.0039 13° North 354 407 16,900 2,344 Climbing FlightAware ADS-B
Fri 09:31:17 PM 24.7470 118.0192 14° North 368 423 18,100 2,189 Climbing FlightAware ADS-B
Fri 09:32:00 PM 24.8227 118.0399 14° North 384 442 19,600 2,189 Climbing FlightAware ADS-B
Fri 09:32:31 PM 24.8754 118.0538 14° North 391 450 20,800 2,189 Climbing FlightAware ADS-B
Fri 09:33:14 PM 24.9402 118.0716 15° North 401 461 22,300 2,093 Climbing FlightAware ADS-B
Fri 09:35:00 PM 25.1085 118.0042 340° North  Level Estimated
Fri 09:36:00 PM 25.2037 117.9659 340° North  Level Estimated
Fri 09:37:00 PM 25.2990 117.9275 340° North  Level Estimated
Fri 09:38:00 PM 25.3942 117.8891 340° North  Level Estimated
Fri 09:39:00 PM 25.4894 117.8506 340° North  Level Estimated
Fri 09:40:00 PM 25.5846 117.8121 340° North  Level Estimated
Fri 09:41:00 PM 25.6798 117.7735 340° North  Level Estimated
Fri 09:42:00 PM 25.7749 117.7349 340° North  Level Estimated
Fri 09:43:00 PM 25.8701 117.6962 340° North  Level Estimated
Fri 09:44:00 PM 25.9652 117.6574 340° North  Level Estimated
Fri 09:45:00 PM 26.0604 117.6185 340° North  Level Estimated
Fri 09:46:00 PM 26.1555 117.5796 340° North  Level Estimated
Fri 09:47:00 PM 26.2506 117.5407 340° North  Level Estimated
Fri 09:48:00 PM 26.3457 117.5016 340° North  Level Estimated
Fri 09:49:00 PM 26.4408 117.4625 340° North  Level Estimated
Fri 09:50:00 PM 26.5359 117.4234 340° North  Level Estimated
Fri 09:51:00 PM 26.6310 117.3841 340° North  Level Estimated
Fri 09:52:00 PM 26.7261 117.3449 340° North  Level Estimated
Fri 09:53:00 PM 26.8211 117.3055 340° North  Level Estimated
Fri 09:54:00 PM 26.9162 117.2661 340° North  Level Estimated
Fri 09:55:00 PM 27.0112 117.2266 340° North  Level Estimated
Fri 09:56:00 PM 27.1062 117.1870 340° North  Level Estimated
Fri 09:57:00 PM 27.2012 117.1474 340° North  Level Estimated
Fri 09:58:00 PM 27.2962 117.1077 340° North  Level Estimated
Fri 09:59:00 PM 27.3912 117.0680 340° North  Level Estimated
Fri 10:00:00 PM 27.4862 117.0282 340° North  Level Estimated
Fri 10:01:00 PM 27.5812 116.9883 340° North  Level Estimated
Fri 10:02:00 PM 27.6761 116.9483 340° North  Level Estimated
Fri 10:03:00 PM 27.7711 116.9083 340° North  Level Estimated
Fri 10:04:00 PM 27.8660 116.8682 340° North  Level Estimated
Fri 10:05:00 PM 27.9609 116.8280 340° North  Level Estimated
Fri 10:06:00 PM 28.0558 116.7877 339° North  Level Estimated
Fri 10:07:00 PM 28.1507 116.7474 339° North  Level Estimated
Fri 10:08:00 PM 28.2456 116.7070 339° North  Level Estimated
Fri 10:09:00 PM 28.3405 116.6666 339° North  Level Estimated
Fri 10:10:00 PM 28.4353 116.6261 339° North  Level Estimated
Fri 10:11:00 PM 28.5302 116.5854 339° North  Level Estimated
Fri 10:12:00 PM 28.6250 116.5448 339° North  Level Estimated
Fri 10:13:00 PM 28.7199 116.5040 339° North  Level Estimated
Fri 10:14:00 PM 28.8147 116.4632 339° North  Level Estimated
Fri 10:15:00 PM 28.9095 116.4223 339° North  Level Estimated
Fri 10:16:00 PM 29.0042 116.3813 339° North  Level Estimated
Fri 10:17:00 PM 29.0990 116.3403 339° North  Level Estimated
Fri 10:18:00 PM 29.1938 116.2991 339° North  Level Estimated
Fri 10:19:00 PM 29.2885 116.2579 339° North  Level Estimated
Fri 10:20:00 PM 29.3833 116.2167 339° North  Level Estimated
Fri 10:21:00 PM 29.4780 116.1753 339° North  Level Estimated
Fri 10:22:00 PM 29.5727 116.1339 339° North  Level Estimated
Fri 10:23:00 PM 29.6674 116.0924 339° North  Level Estimated
Fri 10:24:00 PM 29.7621 116.0508 339° North  Level Estimated
Fri 10:25:00 PM 29.8568 116.0091 339° North  Level Estimated
Fri 10:26:00 PM 29.9514 115.9674 339° North  Level Estimated
Fri 10:27:00 PM 30.0461 115.9256 339° North  Level Estimated
Fri 10:28:00 PM 30.1407 115.8837 339° North  Level Estimated
Fri 10:29:00 PM 30.2353 115.8417 339° North  Level Estimated
Fri 10:30:00 PM 30.3300 115.7996 339° North  Level Estimated
Fri 10:31:00 PM 30.4245 115.7574 339° North  Level Estimated
Fri 10:32:00 PM 30.5191 115.7152 339° North  Level Estimated
Fri 10:33:00 PM 30.6137 115.6729 339° North  Level Estimated
Fri 10:34:00 PM 30.7082 115.6305 339° North  Level Estimated
Fri 10:35:00 PM 30.8028 115.5880 339° North  Level Estimated
Fri 10:36:00 PM 30.8973 115.5455 339° North  Level Estimated
Fri 10:37:00 PM 30.9918 115.5028 339° North  Level Estimated
Fri 10:38:00 PM 31.0863 115.4601 339° North  Level Estimated
Fri 10:39:00 PM 31.1808 115.4173 339° North  Level Estimated
Fri 10:40:00 PM 31.2753 115.3744 339° North  Level Estimated
Fri 10:41:00 PM 31.3697 115.3314 339° North  Level Estimated
Fri 10:42:00 PM 31.4642 115.2883 339° North  Level Estimated
Fri 10:43:00 PM 31.5586 115.2452 339° North  Level Estimated
Fri 10:44:00 PM 31.6530 115.2019 339° North  Level Estimated
Fri 10:45:00 PM 31.7474 115.1586 339° North  Level Estimated
Fri 10:46:00 PM 31.8418 115.1152 339° North  Level Estimated
Fri 10:47:00 PM 31.9361 115.0716 339° North  Level Estimated
Fri 10:48:00 PM 32.0305 115.0280 339° North  Level Estimated
Fri 10:49:00 PM 32.1248 114.9844 339° North  Level Estimated
Fri 10:50:00 PM 32.2192 114.9406 339° North  Level Estimated
Fri 10:51:00 PM 32.3135 114.8967 339° North  Level Estimated
Fri 10:52:00 PM 32.4077 114.8527 339° North  Level Estimated
Fri 10:53:00 PM 32.5020 114.8087 338° Northwest  Level Estimated
Fri 10:54:00 PM 32.5963 114.7645 338° Northwest  Level Estimated
Fri 10:55:00 PM 32.6905 114.7203 338° Northwest  Level Estimated
Fri 10:56:00 PM 32.7848 114.6759 338° Northwest  Level Estimated
Fri 10:57:00 PM 32.8790 114.6315 338° Northwest  Level Estimated
Fri 10:58:00 PM 32.9732 114.5870 338° Northwest  Level Estimated
Fri 10:59:00 PM 33.0674 114.5424 338° Northwest  Level Estimated
Fri 11:00:00 PM 33.1615 114.4977 338° Northwest  Level Estimated
Fri 11:01:00 PM 33.2557 114.4529 338° Northwest  Level Estimated
Fri 11:02:00 PM 33.3498 114.4079 338° Northwest  Level Estimated
Fri 11:03:00 PM 33.4439 114.3629 338° Northwest  Level Estimated
Fri 11:04:00 PM 33.5380 114.3178 338° Northwest  Level Estimated
Fri 11:05:00 PM 33.6321 114.2726 338° Northwest  Level Estimated
Fri 11:06:00 PM 33.7262 114.2273 338° Northwest  Level Estimated
Fri 11:07:00 PM 33.8202 114.1819 338° Northwest  Level Estimated
Fri 11:08:00 PM 33.9143 114.1364 338° Northwest  Level Estimated
Fri 11:09:00 PM 34.0083 114.0908 338° Northwest  Level Estimated
Fri 11:10:00 PM 34.1023 114.0451 338° Northwest  Level Estimated
Fri 11:11:00 PM 34.1963 113.9993 338° Northwest  Level Estimated
Fri 11:12:00 PM 34.2902 113.9534 338° Northwest  Level Estimated
Fri 11:13:00 PM 34.3842 113.9074 338° Northwest  Level Estimated
Fri 11:14:00 PM 34.4781 113.8613 338° Northwest  Level Estimated
Fri 11:15:00 PM 34.5197 113.8409 338° Northwest  Level Estimated
Fri 11:16:00 PM 34.5197 113.8409 North  Level Estimated
Fri 11:17:00 PM 34.5197 113.8409 North  Level Estimated
Fri 11:18:00 PM 34.5197 113.8409 North  Level Estimated
Fri 11:19:00 PM 34.5197 113.8409 North  Level Estimated
Fri 11:20:00 PM 34.5197 113.8409 North  Level Estimated
Fri 11:21:00 PM 34.5197 113.8409 North  Level Estimated
Fri 11:22:00 PM 34.5197 113.8409 North  Level Estimated
Fri 11:23:00 PM 34.5197 113.8409 North  Level Estimated
Fri 11:24:00 PM 34.5197 113.8409 North  Level Estimated
Fri 11:25:00 PM 34.5197 113.8409 North  Level Estimated

Login

Don't have an account? Register now (free) for customized features, flight alerts, and more!